Time,TemperatureF,DewpointF,PressureIn,WindDirection,WindDirectionDegrees,WindSpeedMPH,WindSpeedGustMPH,Humidity,HourlyPrecipIn,Conditions,Clouds,dailyrainin,SolarRadiationWatts/m^2,SoftwareType,DateUTC
2013-06-14 00:33:00,62.0,44.0,29.79,NNE,21,0.0,-999.0,51,-99.99,,,-99.99,0.000000,,2013-06-14 07:33:00,
2013-06-14 00:43:00,62.0,44.0,29.79,NNE,21,0.0,-999.0,51,-99.99,,,-99.99,0.000000,,2013-06-14 07:43:00,
2013-06-14 00:53:00,62.0,44.0,29.79,NNE,21,0.0,-999.0,51,-99.99,,,-99.99,0.000000,,2013-06-14 07:53:00,
2013-06-14 01:01:00,62.0,44.0,29.79,NNE,21,0.0,-999.0,51,-99.99,,,-99.99,0.000000,,2013-06-14 08:01:00,
2013-06-14 03:22:00,58.0,44.0,29.75,West,260,0.0,-999.0,59,-99.99,,,-99.99,0.000000,,2013-06-14 10:22:00,
2013-06-14 03:34:00,58.0,44.0,29.75,West,260,0.0,-999.0,59,-99.99,,,-99.99,0.000000,,2013-06-14 10:34:00,
2013-06-14 03:44:00,58.0,44.0,29.75,West,260,0.0,-999.0,59,-99.99,,,-99.99,0.000000,,2013-06-14 10:44:00,
2013-06-14 03:52:00,58.0,44.0,29.75,West,260,0.0,-999.0,59,-99.99,,,-99.99,0.000000,,2013-06-14 10:52:00,
2013-06-14 04:01:00,58.0,44.0,29.75,West,260,0.0,-999.0,59,-99.99,,,-99.99,0.000000,,2013-06-14 11:01:00,
2013-06-14 06:22:00,54.0,44.0,29.72,West,261,0.0,-999.0,68,-99.99,,,-99.99,7.000000,,2013-06-14 13:22:00,
2013-06-14 06:33:00,54.0,44.0,29.72,West,261,0.0,-999.0,68,-99.99,,,-99.99,7.000000,,2013-06-14 13:33:00,
2013-06-14 06:43:00,54.0,44.0,29.72,West,261,0.0,-999.0,68,-99.99,,,-99.99,7.000000,,2013-06-14 13:43:00,
2013-06-14 06:53:00,54.0,44.0,29.72,West,261,0.0,-999.0,68,-99.99,,,-99.99,7.000000,,2013-06-14 13:53:00,
2013-06-14 07:02:00,54.0,44.0,29.72,West,261,0.0,-999.0,68,-99.99,,,-99.99,7.000000,,2013-06-14 14:02:00,
2013-06-14 09:23:00,67.0,44.0,29.73,SW,229,1.0,-999.0,43,-99.99,,,-99.99,540.000000,,2013-06-14 16:23:00,
2013-06-14 09:33:00,67.0,44.0,29.73,SW,229,1.0,-999.0,43,-99.99,,,-99.99,540.000000,,2013-06-14 16:33:00,
2013-06-14 09:43:00,67.0,44.0,29.73,SW,229,1.0,-999.0,43,-99.99,,,-99.99,540.000000,,2013-06-14 16:43:00,
2013-06-14 09:53:00,67.0,44.0,29.73,SW,229,1.0,-999.0,43,-99.99,,,-99.99,540.000000,,2013-06-14 16:53:00,
2013-06-14 10:02:00,67.0,44.0,29.73,SW,229,1.0,-999.0,43,-99.99,,,-99.99,540.000000,,2013-06-14 17:02:00,
2013-06-14 12:33:00,82.0,33.0,29.71,SSW,210,5.0,-999.0,17,-99.99,,,-99.99,960.000000,,2013-06-14 19:33:00,
2013-06-14 12:43:00,82.0,33.0,29.71,SSW,210,5.0,-999.0,17,-99.99,,,-99.99,960.000000,,2013-06-14 19:43:00,
2013-06-14 12:53:00,82.0,33.0,29.71,SSW,210,5.0,-999.0,17,-99.99,,,-99.99,960.000000,,2013-06-14 19:53:00,
2013-06-14 13:01:00,82.0,33.0,29.71,SSW,210,5.0,-999.0,17,-99.99,,,-99.99,960.000000,,2013-06-14 20:01:00,
2013-06-14 15:22:00,86.0,43.0,29.66,WSW,254,4.0,-999.0,22,-99.99,,,-99.99,844.000000,,2013-06-14 22:22:00,
2013-06-14 15:33:00,86.0,43.0,29.66,WSW,254,4.0,-999.0,22,-99.99,,,-99.99,844.000000,,2013-06-14 22:33:00,
2013-06-14 15:43:00,86.0,43.0,29.66,WSW,254,4.0,-999.0,22,-99.99,,,-99.99,844.000000,,2013-06-14 22:43:00,
2013-06-14 15:53:00,86.0,43.0,29.66,WSW,254,4.0,-999.0,22,-99.99,,,-99.99,844.000000,,2013-06-14 22:53:00,
2013-06-14 16:01:00,86.0,43.0,29.66,WSW,254,4.0,-999.0,22,-99.99,,,-99.99,844.000000,,2013-06-14 23:01:00,
2013-06-14 18:33:00,83.0,38.0,29.63,West,269,2.0,-999.0,20,-99.99,,,-99.99,352.000000,,2013-06-15 01:33:00,
2013-06-14 18:43:00,83.0,38.0,29.63,West,269,2.0,-999.0,20,-99.99,,,-99.99,352.000000,,2013-06-15 01:43:00,
2013-06-14 18:54:00,83.0,38.0,29.63,West,269,2.0,-999.0,20,-99.99,,,-99.99,352.000000,,2013-06-15 01:54:00,
2013-06-14 19:02:00,83.0,38.0,29.63,West,269,2.0,-999.0,20,-99.99,,,-99.99,352.000000,,2013-06-15 02:02:00,
2013-06-14 19:11:00,83.0,38.0,29.63,West,269,2.0,-999.0,20,-99.99,,,-99.99,352.000000,,2013-06-15 02:11:00,